Time;durP1;ratioP1;P1;durP2;ratioP2;P2;SDS_P1;SDS_P2;PMS_P1;PMS_P2;Temp;Humidity;BMP_temperature;BMP_pressure;BME280_temperature;BME280_humidity;BME280_pressure;Samples;Min_cycle;Max_cycle;Signal;HPM_P1;HPM_P2
2023/03/24 00:00:35;;;;;;;23.57;22.23;;;;;;;-141.22;100.00;65034.22;4935175;29;20477;-48
2023/03/24 00:03:03;;;;;;;25.87;23.73;;;;;;;-141.22;100.00;65034.22;4927518;29;20439;-47
2023/03/24 00:05:33;;;;;;;26.20;24.37;;;;;;;-141.22;100.00;65034.22;4935154;28;20522;-47
2023/03/24 00:08:01;;;;;;;27.10;25.33;;;;;;;-141.22;100.00;65034.22;4935770;29;20476;-52
2023/03/24 00:10:33;;;;;;;25.30;23.57;;;;;;;-141.22;100.00;65034.22;4935643;29;20896;-46
2023/03/24 00:13:01;;;;;;;28.10;26.13;;;;;;;-141.22;100.00;65034.22;4935247;29;20440;-47
2023/03/24 00:15:30;;;;;;;29.50;27.30;;;;;;;-141.22;100.00;65034.22;4935189;28;20830;-50
2023/03/24 00:17:58;;;;;;;29.43;27.43;;;;;;;-141.22;100.00;65034.22;4935284;29;20469;-48
2023/03/24 00:20:28;;;;;;;30.30;28.10;;;;;;;-141.22;100.00;65034.22;4935190;29;20951;-50
2023/03/24 00:22:57;;;;;;;30.97;28.10;;;;;;;-141.22;100.00;65034.22;4935185;29;20416;-47
2023/03/24 00:25:28;;;;;;;31.47;29.00;;;;;;;-141.22;100.00;65034.22;4934980;28;20580;-47
2023/03/24 00:27:57;;;;;;;32.07;29.70;;;;;;;-141.22;100.00;65034.22;4935154;29;20575;-50
2023/03/24 00:30:25;;;;;;;30.73;28.53;;;;;;;-141.22;100.00;65034.22;4935052;29;20560;-49
2023/03/24 00:32:53;;;;;;;31.43;28.93;;;;;;;-141.22;100.00;65034.22;4934780;29;20539;-48
2023/03/24 00:35:22;;;;;;;31.07;28.77;;;;;;;-141.22;100.00;65034.22;4934913;28;20527;-49
2023/03/24 00:37:50;;;;;;;34.07;31.40;;;;;;;-141.22;100.00;65034.22;4935177;29;20802;-54
2023/03/24 00:40:21;;;;;;;34.33;31.63;;;;;;;-141.22;100.00;65034.22;4934944;29;20465;-50
2023/03/24 00:42:50;;;;;;;34.50;31.80;;;;;;;-141.22;100.00;65034.22;4934833;29;20436;-47
2023/03/24 00:45:21;;;;;;;33.87;31.30;;;;;;;-141.22;100.00;65034.22;4934401;28;20460;-45
2023/03/24 00:47:52;;;;;;;34.77;32.07;;;;;;;-141.22;100.00;65034.22;4935018;29;20436;-49
2023/03/24 00:50:25;;;;;;;34.90;32.03;;;;;;;-141.22;100.00;65034.22;4934973;29;20468;-54
2023/03/24 00:52:53;;;;;;;34.73;31.90;;;;;;;-141.22;100.00;65034.22;4934633;29;20943;-47
2023/03/24 00:55:22;;;;;;;34.77;31.93;;;;;;;-141.22;100.00;65034.22;4934364;28;20467;-48
2023/03/24 00:57:50;;;;;;;35.40;32.53;;;;;;;-141.22;100.00;65034.22;4934656;29;20440;-51
2023/03/24 01:00:23;;;;;;;37.30;34.43;;;;;;;-141.22;100.00;65034.22;4934621;29;20468;-48
2023/03/24 01:02:53;;;;;;;37.07;34.00;;;;;;;-141.22;100.00;65034.22;4934478;29;20432;-49
2023/03/24 01:05:23;;;;;;;35.50;32.80;;;;;;;-141.22;100.00;65034.22;4934208;28;20529;-52
2023/03/24 01:07:51;;;;;;;38.47;35.07;;;;;;;-141.22;100.00;65034.22;4933891;29;20563;-49
2023/03/24 01:10:24;;;;;;;37.80;34.37;;;;;;;-141.22;100.00;65034.22;4934211;29;20456;-46
2023/03/24 01:12:54;;;;;;;38.27;35.07;;;;;;;-141.22;100.00;65034.22;4934333;29;20456;-47
2023/03/24 01:15:25;;;;;;;38.33;35.33;;;;;;;-141.22;100.00;65034.22;4934070;28;20457;-47
2023/03/24 01:17:53;;;;;;;36.97;34.00;;;;;;;-141.22;100.00;65034.22;4934450;29;20437;-49
2023/03/24 01:20:22;;;;;;;39.07;35.70;;;;;;;-141.22;100.00;65034.22;4934401;29;20994;-49
2023/03/24 01:22:50;;;;;;;40.17;36.57;;;;;;;-141.22;100.00;65034.22;4933953;29;20440;-47
2023/03/24 01:25:22;;;;;;;37.43;34.53;;;;;;;-141.22;100.00;65034.22;4933909;28;20456;-47
2023/03/24 01:27:52;;;;;;;37.43;33.97;;;;;;;-141.22;100.00;65034.22;4934557;29;20587;-46
2023/03/24 01:30:22;;;;;;;38.80;35.60;;;;;;;-141.22;100.00;65034.22;4934276;29;20484;-52
2023/03/24 01:32:51;;;;;;;38.07;35.13;;;;;;;-141.22;100.00;65034.22;4934133;29;20428;-50
2023/03/24 01:35:20;;;;;;;38.83;35.73;;;;;;;-141.22;100.00;65034.22;4933816;28;20460;-47
2023/03/24 01:37:48;;;;;;;40.47;37.27;;;;;;;-141.22;100.00;65034.22;4934439;29;20436;-53
2023/03/24 01:40:18;;;;;;;38.63;35.47;;;;;;;-141.22;100.00;65034.22;4934359;29;21066;-49
2023/03/24 01:42:49;;;;;;;39.27;35.80;;;;;;;-141.22;100.00;65034.22;4934160;29;20468;-48
2023/03/24 01:46:14;;;;;;;37.53;34.23;;;;;;;-141.22;100.00;65034.22;4934124;28;20480;-48
2023/03/24 01:48:47;;;;;;;40.67;37.07;;;;;;;-141.22;100.00;65034.22;4894121;29;20478;-49
2023/03/24 01:51:18;;;;;;;39.47;35.97;;;;;;;-141.22;100.00;65034.22;4893971;29;20503;-54
2023/03/24 01:53:50;;;;;;;39.27;35.97;;;;;;;-141.22;100.00;65034.22;4920947;29;20943;-47
2023/03/24 01:56:18;;;;;;;40.97;37.87;;;;;;;-141.22;100.00;65034.22;4933853;28;20816;-48
2023/03/24 01:58:50;;;;;;;38.93;36.03;;;;;;;-141.22;100.00;65034.22;4934203;29;20981;-49
2023/03/24 02:01:20;;;;;;;37.13;34.17;;;;;;;-141.22;100.00;65034.22;4934116;29;20440;-47
2023/03/24 02:03:49;;;;;;;38.53;35.40;;;;;;;-141.22;100.00;65034.22;4934396;29;20464;-50
2023/03/24 02:06:18;;;;;;;39.83;36.77;;;;;;;-141.22;100.00;65034.22;4933599;28;20595;-48
2023/03/24 02:08:52;;;;;;;37.93;35.17;;;;;;;-141.22;100.00;65034.22;4934270;29;20815;-48
2023/03/24 02:11:20;;;;;;;37.80;34.83;;;;;;;-141.22;100.00;65034.22;4934094;29;20444;-49
2023/03/24 02:13:50;;;;;;;37.97;35.10;;;;;;;-141.22;100.00;65034.22;4933834;29;20500;-50
2023/03/24 02:16:48;;;;;;;37.73;34.80;;;;;;;-141.22;100.00;65034.22;4933469;28;20461;-50
2023/03/24 02:19:53;;;;;;;35.17;32.97;;;;;;;-141.22;100.00;65034.22;4932391;29;20823;-52
2023/03/24 02:23:13;;;;;;;36.13;33.27;;;;;;;-141.22;100.00;65034.22;4937275;29;20460;-47
2023/03/24 02:26:10;;;;;;;36.37;33.60;;;;;;;-141.22;100.00;65034.22;4896468;29;20540;-46
2023/03/24 02:28:47;;;;;;;35.03;32.73;;;;;;;-141.22;100.00;65034.22;4897037;29;20426;-49
2023/03/24 02:31:53;;;;;;;36.80;34.17;;;;;;;-141.22;100.00;65034.22;4930887;29;20456;-47
2023/03/24 02:34:53;;;;;;;35.40;33.13;;;;;;;-141.22;100.00;65034.22;4921056;28;20444;-51
2023/03/24 02:38:08;;;;;;;35.33;33.03;;;;;;;-141.22;100.00;65034.22;4936991;29;20879;-50
2023/03/24 02:40:44;;;;;;;35.93;33.27;;;;;;;-141.22;100.00;65034.22;4914109;29;20458;-47
2023/03/24 02:43:19;;;;;;;38.03;35.50;;;;;;;-141.22;100.00;65034.22;4936862;29;21018;-47
2023/03/24 02:45:59;;;;;;;35.83;33.53;;;;;;;-141.22;100.00;65034.22;4936675;28;20555;-46
2023/03/24 02:48:36;;;;;;;36.67;33.70;;;;;;;-141.22;100.00;65034.22;4937501;29;20938;-45
2023/03/24 02:51:10;;;;;;;37.07;34.57;;;;;;;-141.22;100.00;65034.22;4937274;29;20567;-44
2023/03/24 02:53:49;;;;;;;37.00;34.60;;;;;;;-141.22;100.00;65034.22;4937109;29;20548;-48
2023/03/24 02:56:26;;;;;;;37.00;34.53;;;;;;;-141.22;100.00;65034.22;4936555;28;20475;-46
2023/03/24 02:58:59;;;;;;;37.03;34.73;;;;;;;-141.22;100.00;65034.22;4937092;29;20448;-44
2023/03/24 03:01:31;;;;;;;36.67;34.37;;;;;;;-141.22;100.00;65034.22;4936970;29;20761;-45
2023/03/24 03:04:02;;;;;;;35.17;32.93;;;;;;;-141.22;100.00;65034.22;4936790;29;20464;-45
2023/03/24 03:06:35;;;;;;;34.90;32.80;;;;;;;-141.22;100.00;65034.22;4936345;28;20468;-49
2023/03/24 03:09:06;;;;;;;37.03;34.70;;;;;;;-141.22;100.00;65034.22;4936516;29;20970;-46
2023/03/24 03:11:35;;;;;;;37.30;34.97;;;;;;;-141.22;100.00;65034.22;4936365;29;20511;-48
2023/03/24 03:14:07;;;;;;;36.50;34.30;;;;;;;-141.22;100.00;65034.22;4936753;29;20436;-45
2023/03/24 03:16:39;;;;;;;35.47;33.60;;;;;;;-141.22;100.00;65034.22;4936371;28;20551;-51
2023/03/24 03:19:12;;;;;;;36.43;34.33;;;;;;;-141.22;100.00;65034.22;4936546;29;20439;-48
2023/03/24 03:21:43;;;;;;;38.37;35.47;;;;;;;-141.22;100.00;65034.22;4936459;29;20433;-45
2023/03/24 03:24:15;;;;;;;36.40;34.40;;;;;;;-141.22;100.00;65034.22;4936631;29;20524;-47
2023/03/24 03:26:47;;;;;;;36.80;34.53;;;;;;;-141.22;100.00;65034.22;4936059;28;20464;-45
2023/03/24 03:29:20;;;;;;;36.83;34.40;;;;;;;-141.22;100.00;65034.22;4936323;29;20476;-47
2023/03/24 03:31:58;;;;;;;35.67;33.47;;;;;;;-141.22;100.00;65034.22;4935392;29;20535;-46
2023/03/24 03:34:34;;;;;;;36.60;34.63;;;;;;;-141.22;100.00;65034.22;4936390;29;20440;-44
2023/03/24 03:37:08;;;;;;;37.50;34.93;;;;;;;-141.22;100.00;65034.22;4935859;28;20468;-45
2023/03/24 03:39:42;;;;;;;36.70;34.40;;;;;;;-141.22;100.00;65034.22;4936194;29;20449;-47
2023/03/24 03:42:12;;;;;;;35.13;33.23;;;;;;;-141.22;100.00;65034.22;4935843;29;20459;-47
2023/03/24 03:44:40;;;;;;;36.40;34.37;;;;;;;-141.22;100.00;65034.22;4936317;29;20432;-46
2023/03/24 03:47:08;;;;;;;37.50;34.53;;;;;;;-141.22;100.00;65034.22;4935426;28;20551;-47
2023/03/24 03:49:37;;;;;;;35.80;33.60;;;;;;;-141.22;100.00;65034.22;4935962;29;20480;-50
2023/03/24 03:52:06;;;;;;;37.93;35.73;;;;;;;-141.22;100.00;65034.22;4935709;29;20432;-45
2023/03/24 03:54:35;;;;;;;37.50;35.40;;;;;;;-141.22;100.00;65034.22;4936006;29;20440;-45
2023/03/24 03:57:03;;;;;;;37.57;35.47;;;;;;;-141.22;100.00;65034.22;4935197;28;20464;-45
2023/03/24 03:59:35;;;;;;;36.63;34.47;;;;;;;-141.22;100.00;65034.22;4935601;29;21015;-44
2023/03/24 04:02:16;;;;;;;36.90;34.60;;;;;;;-141.22;100.00;65034.22;4935766;29;20425;-45
2023/03/24 04:05:12;;;;;;;39.20;36.47;;;;;;;-141.22;100.00;65034.22;4935734;29;20440;-50
2023/03/24 04:08:02;;;;;;;38.00;35.90;;;;;;;-141.22;100.00;65034.22;4935694;29;20889;-45
2023/03/24 04:10:35;;;;;;;38.07;35.63;;;;;;;-141.22;100.00;65034.22;4935491;29;20476;-45
2023/03/24 04:13:18;;;;;;;38.43;35.90;;;;;;;-141.22;100.00;65034.22;4935344;29;20432;-48
2023/03/24 04:15:54;;;;;;;38.50;36.20;;;;;;;-141.22;100.00;65034.22;4935267;28;20579;-49
2023/03/24 04:18:41;;;;;;;38.67;36.37;;;;;;;-141.22;100.00;65034.22;4935689;29;20519;-46
2023/03/24 04:21:27;;;;;;;35.83;33.90;;;;;;;-141.22;100.00;65034.22;4935396;29;20460;-45
2023/03/24 04:24:05;;;;;;;38.40;36.03;;;;;;;-141.22;100.00;65034.22;4935225;29;20531;-47
2023/03/24 04:26:41;;;;;;;36.83;34.73;;;;;;;-141.22;100.00;65034.22;4934990;28;20468;-44
2023/03/24 04:29:17;;;;;;;38.07;35.67;;;;;;;-141.22;100.00;65034.22;4935172;29;20527;-48
2023/03/24 04:31:52;;;;;;;37.50;35.50;;;;;;;-141.22;100.00;65034.22;4934999;29;20480;-50
2023/03/24 04:34:24;;;;;;;37.60;35.40;;;;;;;-141.22;100.00;65034.22;4935026;29;20459;-46
2023/03/24 04:36:54;;;;;;;38.57;36.37;;;;;;;-141.22;100.00;65034.22;4934768;28;20554;-45
2023/03/24 04:39:27;;;;;;;38.67;36.67;;;;;;;-141.22;100.00;65034.22;4935196;29;20460;-47
2023/03/24 04:41:56;;;;;;;39.43;36.93;;;;;;;-141.22;100.00;65034.22;4934865;29;20461;-47
2023/03/24 04:44:26;;;;;;;38.80;36.70;;;;;;;-141.22;100.00;65034.22;4935036;29;20519;-48
2023/03/24 04:46:59;;;;;;;38.30;36.20;;;;;;;-141.22;100.00;65034.22;4934383;28;20463;-44
2023/03/24 04:49:26;;;;;;;39.00;36.87;;;;;;;-141.22;100.00;65034.22;4934881;29;20456;-44
2023/03/24 04:51:55;;;;;;;37.53;35.43;;;;;;;-141.22;100.00;65034.22;4934586;29;21032;-47
2023/03/24 04:54:23;;;;;;;37.47;35.47;;;;;;;-141.22;100.00;65034.22;4918887;29;20437;-44
2023/03/24 04:56:52;;;;;;;39.90;37.50;;;;;;;-141.22;100.00;65034.22;4915490;28;20476;-45
2023/03/24 04:59:20;;;;;;;39.83;37.53;;;;;;;-141.22;100.00;65034.22;4915458;29;20501;-46
2023/03/24 05:01:49;;;;;;;40.53;38.03;;;;;;;-141.22;100.00;65034.22;4915679;29;20438;-49
2023/03/24 05:04:21;;;;;;;39.97;37.77;;;;;;;-141.22;100.00;65034.22;4914720;29;20440;-45
2023/03/24 05:06:48;;;;;;;40.40;37.73;;;;;;;-141.22;100.00;65034.22;4915306;29;20477;-47
2023/03/24 05:09:17;;;;;;;41.40;38.90;;;;;;;-141.22;100.00;65034.22;4915518;29;20458;-48
2023/03/24 05:11:45;;;;;;;39.40;37.10;;;;;;;-141.22;100.00;65034.22;4915404;29;20480;-45
2023/03/24 05:14:13;;;;;;;39.50;37.20;;;;;;;-141.22;100.00;65034.22;4915848;29;20520;-45
2023/03/24 05:16:41;;;;;;;40.70;38.20;;;;;;;-141.22;100.00;65034.22;4915205;28;20473;-48
2023/03/24 05:19:09;;;;;;;40.73;38.33;;;;;;;-141.22;100.00;65034.22;4914979;29;20959;-45
2023/03/24 05:21:38;;;;;;;41.13;38.43;;;;;;;-141.22;100.00;65034.22;4914817;29;20497;-48
2023/03/24 05:24:06;;;;;;;40.57;38.17;;;;;;;-141.22;100.00;65034.22;4927858;29;21002;-44
2023/03/24 05:26:34;;;;;;;41.17;38.87;;;;;;;-141.22;100.00;65034.22;4920648;28;20473;-46
2023/03/24 05:29:01;;;;;;;41.60;39.30;;;;;;;-141.22;100.00;65034.22;4921425;29;20444;-46
2023/03/24 05:31:29;;;;;;;42.70;40.30;;;;;;;-141.22;100.00;65034.22;4926138;29;20489;-49
2023/03/24 05:33:57;;;;;;;42.90;40.50;;;;;;;-141.22;100.00;65034.22;4915210;29;20434;-47
2023/03/24 05:36:24;;;;;;;43.30;40.90;;;;;;;-141.22;100.00;65034.22;4923967;28;20849;-48
2023/03/24 05:38:53;;;;;;;44.33;41.80;;;;;;;-141.22;100.00;65034.22;4933403;29;20440;-51
2023/03/24 05:41:21;;;;;;;45.40;42.80;;;;;;;-141.22;100.00;65034.22;4925826;29;20560;-47
2023/03/24 05:43:49;;;;;;;43.87;41.47;;;;;;;-141.22;100.00;65034.22;4914983;29;20430;-45
2023/03/24 05:46:16;;;;;;;44.30;41.67;;;;;;;-141.22;100.00;65034.22;4914152;28;20495;-48
2023/03/24 05:48:45;;;;;;;45.07;42.47;;;;;;;-141.22;100.00;65034.22;4914771;29;20442;-44
2023/03/24 05:51:13;;;;;;;43.20;40.57;;;;;;;-141.22;100.00;65034.22;4914357;29;20537;-46
2023/03/24 05:53:41;;;;;;;45.37;42.53;;;;;;;-141.22;100.00;65034.22;4914648;29;20433;-50
2023/03/24 05:56:11;;;;;;;42.70;40.30;;;;;;;-141.22;100.00;65034.22;4925300;28;20468;-47
2023/03/24 05:58:39;;;;;;;44.50;42.10;;;;;;;-141.22;100.00;65034.22;4937200;29;20838;-49
2023/03/24 06:01:09;;;;;;;44.63;42.23;;;;;;;-141.22;100.00;65034.22;4937058;29;20520;-45
2023/03/24 06:03:37;;;;;;;45.93;43.23;;;;;;;-141.22;100.00;65034.22;4936479;29;20436;-45
2023/03/24 06:06:06;;;;;;;43.97;41.57;;;;;;;-141.22;100.00;65034.22;4935549;28;20472;-48
2023/03/24 06:08:34;;;;;;;44.83;42.40;;;;;;;-141.22;100.00;65034.22;4936523;29;20447;-44
2023/03/24 06:11:03;;;;;;;45.67;43.37;;;;;;;-141.22;100.00;65034.22;4936326;29;20483;-47
2023/03/24 06:13:31;;;;;;;47.03;44.33;;;;;;;-141.22;100.00;65034.22;4936445;29;20436;-48
2023/03/24 06:16:00;;;;;;;47.17;44.47;;;;;;;-141.22;100.00;65034.22;4936014;28;20857;-48
2023/03/24 06:18:30;;;;;;;46.47;44.07;;;;;;;-141.22;100.00;65034.22;4935428;29;20729;-45
2023/03/24 06:20:59;;;;;;;45.47;43.07;;;;;;;-141.22;100.00;65034.22;4931870;29;20921;-46
2023/03/24 06:23:28;;;;;;;43.77;41.50;;;;;;;-141.22;100.00;65034.22;4935566;29;20935;-44
2023/03/24 06:26:00;;;;;;;45.80;43.27;;;;;;;-141.22;100.00;65034.22;4928144;28;20468;-50
2023/03/24 06:28:29;;;;;;;43.70;41.27;;;;;;;-141.22;100.00;65034.22;4932406;29;20433;-43
2023/03/24 06:30:58;;;;;;;40.80;38.27;;;;;;;-141.22;100.00;65034.22;4934829;29;20481;-44
2023/03/24 06:33:25;;;;;;;40.10;37.37;;;;;;;-141.22;100.00;65034.22;4936288;29;20440;-44
2023/03/24 06:35:53;;;;;;;38.10;35.83;;;;;;;-141.22;100.00;65034.22;4936459;28;20831;-44
2023/03/24 06:38:21;;;;;;;37.20;34.70;;;;;;;-141.22;100.00;65034.22;4936989;29;20437;-44
2023/03/24 06:40:49;;;;;;;39.00;36.43;;;;;;;-141.22;100.00;65034.22;4937071;29;20460;-45
2023/03/24 06:43:16;;;;;;;38.37;35.30;;;;;;;-141.22;100.00;65034.22;4936859;29;20433;-44
2023/03/24 06:45:44;;;;;;;38.10;35.70;;;;;;;-141.22;100.00;65034.22;4936704;28;20863;-47
2023/03/24 06:48:14;;;;;;;34.67;32.37;;;;;;;-141.22;100.00;65034.22;4937191;29;20429;-44
2023/03/24 06:50:41;;;;;;;35.63;32.93;;;;;;;-141.22;100.00;65034.22;4936798;29;20875;-45
2023/03/24 06:53:10;;;;;;;35.57;32.83;;;;;;;-141.22;100.00;65034.22;4936409;29;20480;-44
2023/03/24 06:55:37;;;;;;;36.97;33.37;;;;;;;-141.22;100.00;65034.22;4936415;28;20548;-44
2023/03/24 06:58:05;;;;;;;34.13;32.03;;;;;;;-141.22;100.00;65034.22;4936685;29;20843;-44
2023/03/24 07:00:33;;;;;;;34.53;32.30;;;;;;;-141.22;100.00;65034.22;4936201;29;20476;-46
2023/03/24 07:03:01;;;;;;;34.50;31.50;;;;;;;-141.22;100.00;65034.22;4936400;29;20468;-46
2023/03/24 07:05:31;;;;;;;33.97;31.43;;;;;;;-141.22;100.00;65034.22;4935878;28;20834;-44
2023/03/24 07:07:59;;;;;;;34.30;31.87;;;;;;;-141.22;100.00;65034.22;4936058;29;20437;-50
2023/03/24 07:10:30;;;;;;;34.63;32.43;;;;;;;-141.22;100.00;65034.22;4936418;29;20986;-47
2023/03/24 07:12:58;;;;;;;34.27;31.77;;;;;;;-141.22;100.00;65034.22;4936484;29;20480;-44
2023/03/24 07:15:26;;;;;;;34.63;31.93;;;;;;;-141.22;100.00;65034.22;4935988;28;20460;-45
2023/03/24 07:17:53;;;;;;;34.47;31.47;;;;;;;-141.22;100.00;65034.22;4936588;29;20459;-44
2023/03/24 07:20:21;;;;;;;33.60;30.77;;;;;;;-141.22;100.00;65034.22;4936313;29;20460;-46
2023/03/24 07:22:50;;;;;;;33.03;30.70;;;;;;;-141.22;100.00;65034.22;4936095;29;20947;-44
2023/03/24 07:25:20;;;;;;;35.33;32.67;;;;;;;-141.22;100.00;65034.22;4935718;28;20491;-45
2023/03/24 07:27:48;;;;;;;32.77;30.40;;;;;;;-141.22;100.00;65034.22;4936567;29;20441;-44
2023/03/24 07:30:16;;;;;;;34.67;31.83;;;;;;;-141.22;100.00;65034.22;4935810;29;21050;-46
2023/03/24 07:32:53;;;;;;;31.60;29.30;;;;;;;-141.22;100.00;65034.22;4936052;29;20482;-44
2023/03/24 07:35:21;;;;;;;33.20;30.90;;;;;;;-141.22;100.00;65034.22;4935835;28;20471;-45
2023/03/24 07:37:50;;;;;;;34.90;32.00;;;;;;;-141.22;100.00;65034.22;4935924;29;20445;-44
2023/03/24 07:40:18;;;;;;;34.30;31.77;;;;;;;-141.22;100.00;65034.22;4936124;29;20461;-48
2023/03/24 07:42:46;;;;;;;34.27;31.70;;;;;;;-141.22;100.00;65034.22;4935883;29;20444;-52
2023/03/24 07:45:14;;;;;;;34.37;31.47;;;;;;;-141.22;100.00;65034.22;4935517;28;20468;-44
2023/03/24 07:47:43;;;;;;;33.47;30.70;;;;;;;-141.22;100.00;65034.22;4935889;29;20441;-45
2023/03/24 07:50:13;;;;;;;33.60;31.07;;;;;;;-141.22;100.00;65034.22;4935848;29;20971;-44
2023/03/24 07:52:42;;;;;;;32.53;30.20;;;;;;;-141.22;100.00;65034.22;4935537;29;20483;-45
2023/03/24 07:55:12;;;;;;;34.80;32.20;;;;;;;-141.22;100.00;65034.22;4935535;28;20491;-46
2023/03/24 07:57:40;;;;;;;33.20;30.30;;;;;;;-141.22;100.00;65034.22;4935739;29;20943;-44
2023/03/24 08:00:14;;;;;;;33.30;31.20;;;;;;;-141.22;100.00;65034.22;4935555;29;20871;-46
2023/03/24 08:02:42;;;;;;;35.10;31.60;;;;;;;-141.22;100.00;65034.22;4935399;29;20464;-48
2023/03/24 08:05:13;;;;;;;33.93;30.80;;;;;;;-141.22;100.00;65034.22;4935371;28;20488;-49
2023/03/24 08:07:42;;;;;;;31.63;29.43;;;;;;;-141.22;100.00;65034.22;4935700;29;20433;-47
2023/03/24 08:10:12;;;;;;;32.37;29.70;;;;;;;-141.22;100.00;65034.22;4935395;29;20497;-44
2023/03/24 08:12:41;;;;;;;32.13;29.53;;;;;;;-141.22;100.00;65034.22;4935916;29;20476;-44
2023/03/24 08:15:09;;;;;;;33.10;30.20;;;;;;;-141.22;100.00;65034.22;4933436;28;20949;-44
2023/03/24 08:17:37;;;;;;;33.57;30.37;;;;;;;-141.22;100.00;65034.22;4934254;29;20437;-49
2023/03/24 08:20:13;;;;;;;31.60;28.80;;;;;;;-141.22;100.00;65034.22;4935538;29;20453;-45
2023/03/24 08:22:43;;;;;;;31.30;28.80;;;;;;;-141.22;100.00;65034.22;4935329;29;20428;-49
2023/03/24 08:25:13;;;;;;;30.20;27.57;;;;;;;-141.22;100.00;65034.22;4935013;28;20807;-44
2023/03/24 08:27:43;;;;;;;29.87;27.73;;;;;;;-141.22;100.00;65034.22;4935241;29;20867;-49
2023/03/24 08:30:14;;;;;;;30.50;28.20;;;;;;;-141.22;100.00;65034.22;4935221;29;20468;-46
2023/03/24 08:32:44;;;;;;;31.77;28.83;;;;;;;-141.22;100.00;65034.22;4934905;29;20483;-44
2023/03/24 08:35:14;;;;;;;31.60;28.60;;;;;;;-141.22;100.00;65034.22;4933927;28;20471;-44
2023/03/24 08:37:42;;;;;;;30.93;28.43;;;;;;;-141.22;100.00;65034.22;4935059;29;20440;-50
2023/03/24 08:40:13;;;;;;;31.13;28.43;;;;;;;-141.22;100.00;65034.22;4934964;29;20464;-44
2023/03/24 08:42:41;;;;;;;31.47;28.70;;;;;;;-141.22;100.00;65034.22;4935002;29;20463;-49
2023/03/24 08:45:11;;;;;;;30.37;28.03;;;;;;;-141.22;100.00;65034.22;4934469;28;20470;-44
2023/03/24 08:47:39;;;;;;;30.70;28.10;;;;;;;-141.22;100.00;65034.22;4935048;29;20432;-44
2023/03/24 08:50:09;;;;;;;31.00;28.30;;;;;;;-141.22;100.00;65034.22;4934853;29;20832;-48
2023/03/24 08:52:37;;;;;;;31.57;28.77;;;;;;;-141.22;100.00;65034.22;4934495;29;20484;-45
2023/03/24 08:55:06;;;;;;;30.50;27.90;;;;;;;-141.22;100.00;65034.22;4934728;28;20443;-45
2023/03/24 08:57:35;;;;;;;30.07;27.87;;;;;;;-141.22;100.00;65034.22;4934915;29;20432;-47
2023/03/24 09:00:10;;;;;;;30.30;27.70;;;;;;;-141.22;100.00;65034.22;4934607;29;20464;-47
2023/03/24 09:02:38;;;;;;;30.00;27.30;;;;;;;-141.22;100.00;65034.22;4934522;29;20919;-47
2023/03/24 09:05:06;;;;;;;29.53;27.63;;;;;;;-141.22;100.00;65034.22;4934093;28;20433;-45
2023/03/24 09:07:34;;;;;;;29.47;27.37;;;;;;;-141.22;100.00;65034.22;4934961;29;20437;-47
2023/03/24 09:10:03;;;;;;;29.30;27.13;;;;;;;-141.22;100.00;65034.22;4934705;29;20459;-49
2023/03/24 09:12:31;;;;;;;32.00;28.80;;;;;;;-141.22;100.00;65034.22;4934486;29;20476;-45
2023/03/24 09:15:00;;;;;;;30.33;27.70;;;;;;;-141.22;100.00;65034.22;4934166;28;20447;-50
2023/03/24 09:17:28;;;;;;;30.23;27.50;;;;;;;-141.22;100.00;65034.22;4934623;29;21115;-48
2023/03/24 09:19:56;;;;;;;33.37;27.60;;;;;;;-141.22;100.00;65034.22;4934382;29;20456;-44
2023/03/24 09:22:24;;;;;;;30.13;27.53;;;;;;;-141.22;100.00;65034.22;4934272;29;20961;-44
2023/03/24 09:24:52;;;;;;;28.97;27.07;;;;;;;-141.22;100.00;65034.22;4934545;29;20790;-44
2023/03/24 09:27:19;;;;;;;29.00;26.40;;;;;;;-141.22;100.00;65034.22;4934232;29;20463;-44
2023/03/24 09:29:47;;;;;;;29.87;26.90;;;;;;;-141.22;100.00;65034.22;4933694;29;20460;-48
2023/03/24 09:32:16;;;;;;;28.10;26.03;;;;;;;-141.22;100.00;65034.22;4934184;29;20447;-51
2023/03/24 09:34:43;;;;;;;28.93;26.50;;;;;;;-141.22;100.00;65034.22;4934364;29;20445;-44
2023/03/24 09:37:11;;;;;;;28.23;25.47;;;;;;;-141.22;100.00;65034.22;4934004;28;20468;-47
2023/03/24 09:39:39;;;;;;;27.83;25.80;;;;;;;-141.22;100.00;65034.22;4934411;29;20467;-45
2023/03/24 09:42:15;;;;;;;29.37;27.17;;;;;;;-141.22;100.00;65034.22;4934266;29;20442;-44
2023/03/24 09:44:46;;;;;;;29.50;27.20;;;;;;;-141.22;100.00;65034.22;4934293;29;20432;-45
2023/03/24 09:47:26;;;;;;;28.03;26.23;;;;;;;-141.22;100.00;65034.22;4933834;28;20460;-49
2023/03/24 09:49:57;;;;;;;28.90;26.93;;;;;;;-141.22;100.00;65034.22;4934155;29;20515;-45
2023/03/24 09:52:37;;;;;;;29.27;26.67;;;;;;;-141.22;100.00;65034.22;4934061;29;20425;-49
2023/03/24 09:55:09;;;;;;;28.60;26.60;;;;;;;-141.22;100.00;65034.22;4933807;28;20425;-50
2023/03/24 09:57:39;;;;;;;28.43;26.20;;;;;;;-141.22;100.00;65034.22;4929218;29;20453;-49
2023/03/24 10:00:16;;;;;;;30.17;27.20;;;;;;;-141.22;100.00;65034.22;4921752;29;20493;-46
2023/03/24 10:02:45;;;;;;;28.97;26.27;;;;;;;-141.22;100.00;65034.22;4932567;29;20445;-51
2023/03/24 10:05:21;;;;;;;29.77;26.97;;;;;;;-141.22;100.00;65034.22;4916190;28;20497;-44
2023/03/24 10:07:56;;;;;;;29.50;26.60;;;;;;;-141.22;100.00;65034.22;4917616;29;20481;-45
2023/03/24 10:10:31;;;;;;;27.57;25.57;;;;;;;-141.22;100.00;65034.22;4915913;29;20469;-49
2023/03/24 10:13:06;;;;;;;27.00;25.00;;;;;;;-141.22;100.00;65034.22;4916304;29;20631;-45
2023/03/24 10:15:40;;;;;;;27.53;25.20;;;;;;;-141.22;100.00;65034.22;4920887;28;20467;-50
2023/03/24 10:18:30;;;;;;;28.20;26.00;;;;;;;-141.22;100.00;65034.22;4935926;29;20432;-46
2023/03/24 10:21:05;;;;;;;27.27;25.50;;;;;;;-141.22;100.00;65034.22;4934495;29;20523;-46
2023/03/24 10:23:39;;;;;;;28.40;25.73;;;;;;;-141.22;100.00;65034.22;4935951;29;20432;-45
2023/03/24 10:26:25;;;;;;;28.73;26.67;;;;;;;-141.22;100.00;65034.22;4934287;28;20468;-45
2023/03/24 10:29:04;;;;;;;28.40;26.50;;;;;;;-141.22;100.00;65034.22;4936269;29;20461;-48
2023/03/24 10:31:35;;;;;;;27.37;25.57;;;;;;;-141.22;100.00;65034.22;4920808;29;20654;-51
2023/03/24 10:34:04;;;;;;;27.87;25.40;;;;;;;-141.22;100.00;65034.22;4933141;29;20847;-46
2023/03/24 10:36:32;;;;;;;27.17;25.37;;;;;;;-141.22;100.00;65034.22;4933414;28;21044;-48
2023/03/24 10:39:00;;;;;;;27.67;25.20;;;;;;;-141.22;100.00;65034.22;4932653;29;20437;-45
2023/03/24 10:41:45;;;;;;;27.73;25.13;;;;;;;-141.22;100.00;65034.22;4916393;29;20441;-49
2023/03/24 10:44:13;;;;;;;26.13;24.30;;;;;;;-141.22;100.00;65034.22;4919075;29;20434;-45
2023/03/24 10:46:46;;;;;;;25.43;23.70;;;;;;;-141.22;100.00;65034.22;4916823;28;20469;-48
2023/03/24 10:49:18;;;;;;;25.63;23.73;;;;;;;-141.22;100.00;65034.22;4917687;29;20457;-45
2023/03/24 10:51:48;;;;;;;24.87;22.80;;;;;;;-141.22;100.00;65034.22;4924099;29;20476;-44
2023/03/24 10:54:19;;;;;;;26.20;24.10;;;;;;;-141.22;100.00;65034.22;4936439;29;20508;-43
2023/03/24 10:56:49;;;;;;;25.50;23.37;;;;;;;-141.22;100.00;65034.22;4935468;28;21225;-46
2023/03/24 10:59:26;;;;;;;27.23;24.57;;;;;;;-141.22;100.00;65034.22;4936509;29;20737;-44
2023/03/24 11:02:00;;;;;;;26.43;24.43;;;;;;;-141.22;100.00;65034.22;4934984;29;20432;-43
2023/03/24 11:04:30;;;;;;;26.03;24.03;;;;;;;-141.22;100.00;65034.22;4936018;29;20433;-44
2023/03/24 11:07:04;;;;;;;27.20;24.93;;;;;;;-141.22;100.00;65034.22;4934713;28;21038;-43
2023/03/24 11:09:41;;;;;;;25.23;22.60;;;;;;;-141.22;100.00;65034.22;4936304;29;20445;-46
2023/03/24 11:12:22;;;;;;;26.30;23.73;;;;;;;-141.22;100.00;65034.22;4934887;29;20444;-46
2023/03/24 11:14:52;;;;;;;25.10;22.63;;;;;;;-141.22;100.00;65034.22;4936103;29;20472;-45